Terminal Aerodrome Forecast
Issued by NWS Wilmington, OH

Current Version | Previous Version | Graphics & Text | Print | Product List | Glossary On
Versions: 1 2 3 4 5 6 7 8 9 10 11 12 13 14
000
FTUS41 KILN 182337
TAFILN
TAF
KILN 182337Z 1900/1924 17010KT P6SM VCSH BKN035
      TEMPO 1900/1901 5SM SHRA OVC025
     FM190100 25014G26KT P6SM OVC025
     FM190700 29016G26KT P6SM VCSH OVC012
      TEMPO 1907/1911 5SM -SHRASN OVC009
     FM191100 34013G20KT P6SM VCSH OVC007
     FM191300 33012G20KT P6SM OVC015
     FM191600 32014G20KT P6SM BKN030
     FM191900 32015G22KT P6SM SCT070=

USA.gov is the U.S. government's official web portal to all federal, state and local government web resources and services.